Airports Finland Ivalo Airport

Ivalo Airport (EFIV / IVL)

Facts about Ivalo Airport

Name Ivalo Airport
City Ivalo
Country Finland
ICAO code EFIV
IATA code IVL
Elevation 146.6088 meters (481 feet)

Weather

METAR

Metar data retrieved Friday, 19 July 2024 at 23:25 UTC (20 minutes ago)

EFIV 192320Z AUTO 24003KT 220V280 0250 R04/0450N FG VV001 14/14 Q1015

Live traffic

Navigraph Charts (account required)